Time;durP1;ratioP1;P1;durP2;ratioP2;P2;SDS_P1;SDS_P2;PMS_P1;PMS_P2;Temp;Humidity;BMP_temperature;BMP_pressure;BME280_temperature;BME280_humidity;BME280_pressure;Samples;Min_cycle;Max_cycle;Signal;HPM_P1;HPM_P2
2022/08/20 00:00:22;;;;;;;1.80;1.47;;;24.60;99.90;;;;;;1051771;28;20020;-67
2022/08/20 00:00:54;;;;;;;1.50;1.40;;;24.60;99.90;;;;;;1051751;28;20027;-67
2022/08/20 00:01:25;;;;;;;1.45;1.35;;;24.60;99.90;;;;;;1051860;28;20094;-67
2022/08/20 00:01:55;;;;;;;2.00;1.80;;;24.60;99.90;;;;;;1051740;28;20233;-67
2022/08/20 00:02:26;;;;;;;2.20;2.00;;;24.60;99.90;;;;;;1051832;28;20104;-67
2022/08/20 00:03:00;;;;;;;2.00;1.80;;;24.50;99.90;;;;;;1051837;28;20099;-67
2022/08/20 00:03:37;;;;;;;1.98;1.77;;;24.60;99.90;;;;;;1052060;28;20016;-68
2022/08/20 00:04:07;;;;;;;2.08;1.75;;;24.60;99.90;;;;;;1055732;28;20008;-67
2022/08/20 00:04:40;;;;;;;2.10;1.60;;;24.50;99.90;;;;;;1056089;28;20047;-68
2022/08/20 00:05:11;;;;;;;1.67;1.58;;;24.50;99.90;;;;;;1051061;28;20435;-65
2022/08/20 00:05:45;;;;;;;2.10;1.90;;;24.50;99.90;;;;;;1051569;28;20096;-67
2022/08/20 00:06:20;;;;;;;2.17;1.98;;;24.50;99.90;;;;;;1051148;28;20012;-67
2022/08/20 00:06:51;;;;;;;2.10;1.90;;;24.50;99.90;;;;;;1053026;28;20026;-67
2022/08/20 00:07:21;;;;;;;1.80;1.50;;;24.50;99.90;;;;;;1055585;28;20395;-67
2022/08/20 00:07:52;;;;;;;2.20;1.60;;;24.50;99.90;;;;;;1056123;28;20077;-67
2022/08/20 00:08:23;;;;;;;1.90;1.77;;;24.50;99.90;;;;;;1055621;28;20016;-67
2022/08/20 00:08:53;;;;;;;1.60;1.50;;;24.50;99.90;;;;;;1056213;28;20360;-67
2022/08/20 00:09:24;;;;;;;2.27;1.87;;;24.50;99.90;;;;;;1055737;28;20015;-67
2022/08/20 00:09:54;;;;;;;2.37;1.70;;;24.50;99.90;;;;;;1055907;28;20020;-67
2022/08/20 00:10:27;;;;;;;1.83;1.53;;;24.50;99.90;;;;;;1050590;28;20036;-67
2022/08/20 00:10:59;;;;;;;1.85;1.73;;;24.50;99.90;;;;;;1051516;28;20012;-67
2022/08/20 00:11:32;;;;;;;1.70;1.60;;;24.50;99.90;;;;;;1047060;28;20082;-67
2022/08/20 00:12:05;;;;;;;1.70;1.60;;;24.50;99.90;;;;;;1048366;28;20047;-67
2022/08/20 00:12:36;;;;;;;1.50;1.40;;;24.50;99.90;;;;;;1051587;28;20024;-67
2022/08/20 00:13:09;;;;;;;2.77;1.97;;;24.50;99.90;;;;;;1051727;28;20012;-67
2022/08/20 00:13:47;;;;;;;1.95;1.70;;;24.50;99.90;;;;;;1046925;28;20273;-67
2022/08/20 00:14:18;;;;;;;2.33;1.50;;;24.50;99.90;;;;;;1047083;28;20032;-66
2022/08/20 00:14:49;;;;;;;2.80;1.87;;;24.50;99.90;;;;;;1047220;28;20012;-67
2022/08/20 00:15:24;;;;;;;2.10;1.70;;;24.50;99.90;;;;;;1048301;28;20013;-67
2022/08/20 00:15:55;;;;;;;2.15;1.95;;;24.50;99.90;;;;;;1051323;28;20088;-67
2022/08/20 00:16:31;;;;;;;1.98;1.70;;;24.40;99.90;;;;;;1051360;28;20016;-67
2022/08/20 00:17:03;;;;;;;1.67;1.58;;;24.50;99.90;;;;;;1051446;28;20438;-67
2022/08/20 00:17:36;;;;;;;2.50;1.92;;;24.40;99.90;;;;;;1051679;28;20020;-67
2022/08/20 00:18:07;;;;;;;1.70;1.60;;;24.40;99.90;;;;;;1051694;28;20413;-67
2022/08/20 00:18:39;;;;;;;1.63;1.52;;;24.40;99.90;;;;;;1052308;28;20338;-68
2022/08/20 00:19:09;;;;;;;2.00;1.58;;;24.40;99.90;;;;;;1055996;28;20103;-67
2022/08/20 00:19:40;;;;;;;2.00;1.40;;;24.40;99.90;;;;;;1055931;28;20023;-67
2022/08/20 00:20:12;;;;;;;1.90;1.80;;;24.40;99.90;;;;;;1055804;28;20019;-67
2022/08/20 00:20:47;;;;;;;1.55;1.45;;;24.40;99.90;;;;;;1055817;28;20019;-66
2022/08/20 00:21:19;;;;;;;1.55;1.40;;;24.40;99.90;;;;;;1055871;28;20016;-66
2022/08/20 00:21:51;;;;;;;1.77;1.65;;;24.40;99.90;;;;;;1051437;28;20070;-66
2022/08/20 00:22:21;;;;;;;1.40;1.27;;;24.40;99.90;;;;;;1047179;28;20696;-66
2022/08/20 00:22:52;;;;;;;1.77;1.60;;;24.40;99.90;;;;;;1043035;28;20559;-67
2022/08/20 00:23:24;;;;;;;1.77;1.55;;;24.40;99.90;;;;;;1042907;28;20103;-67
2022/08/20 00:23:55;;;;;;;1.40;1.30;;;24.40;99.90;;;;;;1043430;28;20654;-68
2022/08/20 00:24:26;;;;;;;1.40;1.30;;;24.40;99.90;;;;;;1047121;28;20074;-67
2022/08/20 00:24:56;;;;;;;1.57;1.47;;;24.40;99.90;;;;;;1047547;28;20028;-67
2022/08/20 00:25:28;;;;;;;1.40;1.10;;;24.50;99.90;;;;;;1051557;28;20035;-67
2022/08/20 00:25:58;;;;;;;1.13;1.02;;;24.40;99.90;;;;;;1051095;28;20074;-67
2022/08/20 00:26:29;;;;;;;1.33;1.20;;;24.40;99.90;;;;;;1051766;28;20024;-67
2022/08/20 00:26:59;;;;;;;1.60;1.50;;;24.40;99.90;;;;;;1051516;28;20016;-67
2022/08/20 00:27:30;;;;;;;1.97;1.60;;;24.40;99.90;;;;;;1051782;28;20383;-68
2022/08/20 00:28:02;;;;;;;1.90;1.30;;;24.50;99.90;;;;;;1051638;28;20051;-68
2022/08/20 00:28:33;;;;;;;2.00;1.30;;;24.50;99.90;;;;;;1051659;28;20379;-67
2022/08/20 00:29:04;;;;;;;2.97;1.40;;;24.50;99.90;;;;;;1051621;28;20031;-66
2022/08/20 00:29:35;;;;;;;1.20;1.10;;;24.50;99.90;;;;;;1051738;28;20111;-66
2022/08/20 00:30:09;;;;;;;1.90;1.40;;;24.50;99.90;;;;;;1051694;28;20027;-66
2022/08/20 00:30:41;;;;;;;1.65;1.50;;;24.50;99.90;;;;;;1051674;28;20126;-68
2022/08/20 00:31:16;;;;;;;1.45;1.35;;;24.50;99.90;;;;;;1051363;28;20012;-66
2022/08/20 00:31:46;;;;;;;2.28;1.50;;;24.50;99.90;;;;;;1051774;28;20020;-67
2022/08/20 00:32:17;;;;;;;1.40;1.30;;;24.50;99.90;;;;;;1051338;28;20020;-67
2022/08/20 00:32:57;;;;;;;1.40;1.30;;;24.50;99.90;;;;;;1051798;28;20016;-66
2022/08/20 00:33:27;;;;;;;1.52;1.42;;;24.50;99.90;;;;;;1051265;28;20038;-67
2022/08/20 00:33:58;;;;;;;1.83;1.73;;;24.50;99.90;;;;;;1049651;28;20121;-67
2022/08/20 00:34:29;;;;;;;1.80;1.57;;;24.50;99.90;;;;;;1051240;28;20107;-68
2022/08/20 00:34:59;;;;;;;1.50;1.40;;;24.50;99.90;;;;;;1051368;28;20020;-67
2022/08/20 00:35:34;;;;;;;1.73;1.50;;;24.50;99.90;;;;;;1051218;28;20020;-68
2022/08/20 00:36:08;;;;;;;1.67;1.58;;;24.50;99.90;;;;;;1055938;28;20019;-66
2022/08/20 00:36:38;;;;;;;1.65;1.27;;;24.50;99.90;;;;;;1055646;28;20123;-66
2022/08/20 00:37:09;;;;;;;1.50;1.40;;;24.50;99.90;;;;;;1055928;28;20023;-66
2022/08/20 00:37:39;;;;;;;1.60;1.50;;;24.50;99.90;;;;;;1055815;28;20019;-68
2022/08/20 00:38:11;;;;;;;1.80;1.50;;;24.50;99.90;;;;;;1055831;28;20635;-68
2022/08/20 00:38:44;;;;;;;3.55;1.88;;;24.50;99.90;;;;;;1055735;28;20034;-67
2022/08/20 00:39:15;;;;;;;2.15;1.80;;;24.50;99.90;;;;;;1055771;28;20015;-67
2022/08/20 00:39:45;;;;;;;1.93;1.60;;;24.50;99.90;;;;;;1055658;28;20020;-67
2022/08/20 00:40:20;;;;;;;2.33;2.13;;;24.50;99.90;;;;;;1055925;28;20076;-67
2022/08/20 00:40:55;;;;;;;1.67;1.40;;;24.50;99.90;;;;;;1055719;28;20068;-67
2022/08/20 00:41:28;;;;;;;1.75;1.63;;;24.40;99.90;;;;;;1055793;28;20016;-67
2022/08/20 00:41:58;;;;;;;1.38;1.27;;;24.50;99.90;;;;;;1055634;28;20015;-67
2022/08/20 00:42:29;;;;;;;1.97;1.83;;;24.40;99.90;;;;;;1055833;28;20106;-67
2022/08/20 00:43:03;;;;;;;1.87;1.43;;;24.50;99.90;;;;;;1055666;28;20439;-67
2022/08/20 00:43:38;;;;;;;2.45;1.80;;;24.40;99.90;;;;;;1055741;28;20796;-67
2022/08/20 00:44:21;;;;;;;1.92;1.45;;;24.40;99.90;;;;;;1055614;28;20035;-67
2022/08/20 00:44:51;;;;;;;2.17;1.70;;;24.40;99.90;;;;;;1055881;28;20027;-67
2022/08/20 00:45:25;;;;;;;1.70;1.50;;;24.40;99.90;;;;;;1059422;27;20101;-67
2022/08/20 00:45:58;;;;;;;1.77;1.55;;;24.40;99.90;;;;;;1059726;27;20023;-68
2022/08/20 00:46:29;;;;;;;1.65;1.55;;;24.40;99.90;;;;;;1051189;28;20518;-66
2022/08/20 00:47:00;;;;;;;2.03;1.52;;;24.40;99.90;;;;;;1050227;28;20051;-67
2022/08/20 00:47:31;;;;;;;1.63;1.40;;;24.40;99.90;;;;;;1047193;28;20022;-67
2022/08/20 00:48:02;;;;;;;1.80;1.70;;;24.40;99.90;;;;;;1047453;28;20099;-67
2022/08/20 00:48:35;;;;;;;1.70;1.60;;;24.40;99.90;;;;;;1055830;28;20011;-67
2022/08/20 00:49:11;;;;;;;2.33;1.67;;;24.40;99.90;;;;;;1055657;28;20313;-67
2022/08/20 00:49:41;;;;;;;2.33;2.13;;;24.40;99.90;;;;;;1055980;28;20023;-67
2022/08/20 00:50:28;;;;;;;2.10;1.73;;;24.40;99.90;;;;;;1055460;28;20099;-66
2022/08/20 00:51:26;;;;;;;2.15;1.83;;;24.40;99.90;;;;;;1055824;28;20072;-66
2022/08/20 00:52:05;;;;;;;2.03;1.83;;;24.40;99.90;;;;;;1044650;28;20104;-66
2022/08/20 00:52:36;;;;;;;2.25;1.80;;;24.40;99.90;;;;;;1055731;28;20012;-66
2022/08/20 00:53:07;;;;;;;2.10;1.47;;;24.40;99.90;;;;;;1055724;28;20394;-67
2022/08/20 00:53:38;;;;;;;1.63;1.52;;;24.40;99.90;;;;;;1055666;28;20149;-66
2022/08/20 00:54:35;;;;;;;3.17;2.15;;;24.40;99.90;;;;;;1055853;28;20076;-66
2022/08/20 00:55:06;;;;;;;1.67;1.58;;;24.40;99.90;;;;;;1051269;28;20020;-67
2022/08/20 00:55:37;;;;;;;1.77;1.30;;;24.40;99.90;;;;;;1051211;28;20070;-68
2022/08/20 00:56:10;;;;;;;2.13;1.60;;;24.40;99.90;;;;;;1051161;28;20020;-68
2022/08/20 00:56:42;;;;;;;3.22;1.60;;;24.40;99.90;;;;;;1051617;28;20351;-67
2022/08/20 00:57:16;;;;;;;2.58;2.10;;;24.40;99.90;;;;;;1055896;28;20030;-67
2022/08/20 00:57:53;;;;;;;2.28;1.50;;;24.40;99.90;;;;;;1050922;28;20032;-67
2022/08/20 00:58:23;;;;;;;1.95;1.75;;;24.40;99.90;;;;;;1051218;28;20022;-68
2022/08/20 00:58:55;;;;;;;2.63;1.73;;;24.40;99.90;;;;;;1051080;28;20024;-67
2022/08/20 00:59:29;;;;;;;1.67;1.58;;;24.40;99.90;;;;;;1052452;28;20086;-67
2022/08/20 01:00:04;;;;;;;2.00;1.70;;;24.40;99.90;;;;;;1053216;28;20020;-65
2022/08/20 01:00:44;;;;;;;1.60;1.50;;;24.40;99.90;;;;;;1051648;28;20038;-68
2022/08/20 01:01:15;;;;;;;1.50;1.40;;;24.40;99.90;;;;;;1051622;28;20101;-66
2022/08/20 01:01:46;;;;;;;1.70;1.57;;;24.40;99.90;;;;;;1051450;28;20092;-66
2022/08/20 01:02:20;;;;;;;1.50;1.40;;;24.40;99.90;;;;;;1051525;28;20576;-67
2022/08/20 01:02:51;;;;;;;2.33;1.40;;;24.40;99.90;;;;;;1046890;28;20474;-67
2022/08/20 01:03:22;;;;;;;1.70;1.58;;;24.40;99.90;;;;;;1046961;28;20096;-67
2022/08/20 01:03:56;;;;;;;1.60;1.50;;;24.40;99.90;;;;;;1046307;28;20016;-67
2022/08/20 01:04:32;;;;;;;1.70;1.60;;;24.40;99.90;;;;;;1042999;28;20024;-67
2022/08/20 01:05:08;;;;;;;3.60;1.85;;;24.40;99.90;;;;;;1042698;28;20051;-65
2022/08/20 01:05:41;;;;;;;1.85;1.70;;;24.40;99.90;;;;;;1043080;28;20097;-67
2022/08/20 01:06:11;;;;;;;2.15;1.95;;;24.40;99.90;;;;;;1042674;28;20709;-66
2022/08/20 01:06:42;;;;;;;2.00;1.80;;;24.40;99.90;;;;;;1042973;28;20786;-66
2022/08/20 01:07:13;;;;;;;1.92;1.73;;;24.40;99.90;;;;;;1042696;28;20040;-66
2022/08/20 01:07:44;;;;;;;1.70;1.53;;;24.40;99.90;;;;;;1047139;28;20020;-66
2022/08/20 01:08:17;;;;;;;2.05;1.58;;;24.40;99.90;;;;;;1047165;28;20085;-66
2022/08/20 01:08:48;;;;;;;2.25;1.88;;;24.40;99.90;;;;;;1047510;28;20016;-66
2022/08/20 01:09:18;;;;;;;1.87;1.77;;;24.40;99.90;;;;;;1047137;28;20012;-66
2022/08/20 01:09:49;;;;;;;1.60;1.50;;;24.40;99.90;;;;;;1047420;28;20020;-66
2022/08/20 01:10:26;;;;;;;2.57;1.80;;;24.40;99.90;;;;;;1047055;28;20417;-66
2022/08/20 01:11:07;;;;;;;1.55;1.45;;;24.40;99.90;;;;;;1047462;28;20035;-68
2022/08/20 01:11:37;;;;;;;2.22;1.50;;;24.40;99.90;;;;;;1047368;28;20092;-67
2022/08/20 01:12:09;;;;;;;2.60;1.77;;;24.40;99.90;;;;;;1047314;28;20427;-67
2022/08/20 01:12:43;;;;;;;1.58;1.40;;;24.40;99.90;;;;;;1047347;28;20016;-67
2022/08/20 01:13:24;;;;;;;1.92;1.75;;;24.40;99.90;;;;;;1047183;28;20686;-66
2022/08/20 01:13:56;;;;;;;1.83;1.60;;;24.40;99.90;;;;;;1047519;28;20016;-68
2022/08/20 01:14:35;;;;;;;1.70;1.52;;;24.40;99.90;;;;;;1047120;28;20069;-66
2022/08/20 01:15:11;;;;;;;1.83;1.52;;;24.40;99.90;;;;;;1046928;28;20025;-66
2022/08/20 01:15:44;;;;;;;2.10;1.90;;;24.40;99.90;;;;;;1046684;28;20016;-68
2022/08/20 01:16:22;;;;;;;1.55;1.45;;;24.40;99.90;;;;;;1046995;28;20024;-67
2022/08/20 01:16:58;;;;;;;1.92;1.75;;;24.40;99.90;;;;;;1047128;28;20020;-66
2022/08/20 01:17:33;;;;;;;1.88;1.67;;;24.40;99.90;;;;;;1047327;28;20631;-66
2022/08/20 01:18:06;;;;;;;2.20;1.98;;;24.40;99.90;;;;;;1047311;28;20016;-67
2022/08/20 01:18:38;;;;;;;2.17;1.98;;;24.40;99.90;;;;;;1047157;28;20023;-67
2022/08/20 01:19:12;;;;;;;2.00;1.80;;;24.40;99.90;;;;;;1047419;28;20491;-67
2022/08/20 01:19:59;;;;;;;1.63;1.52;;;24.40;99.90;;;;;;1047149;28;20741;-68
2022/08/20 01:20:35;;;;;;;2.03;1.63;;;24.40;99.90;;;;;;1047477;28;20027;-68
2022/08/20 01:21:07;;;;;;;2.35;2.13;;;24.40;99.90;;;;;;1047347;28;20013;-68
2022/08/20 01:21:37;;;;;;;3.20;2.63;;;24.40;99.90;;;;;;1046983;28;20116;-65
2022/08/20 01:23:26;;;;;;;1.95;1.75;;;24.40;99.90;;;;;;1047117;28;20036;-67
2022/08/20 01:24:39;;;;;;;1.63;1.52;;;24.40;99.90;;;;;;1046800;28;20390;-67
2022/08/20 01:25:19;;;;;;;2.50;2.30;;;24.40;99.90;;;;;;1034200;28;20149;-67
2022/08/20 01:25:56;;;;;;;2.10;1.90;;;24.40;99.90;;;;;;1037057;28;20041;-67
2022/08/20 01:26:33;;;;;;;1.70;1.60;;;24.40;99.90;;;;;;1051067;28;20012;-67
2022/08/20 01:27:04;;;;;;;2.25;2.05;;;24.40;99.90;;;;;;1050985;28;20038;-68
2022/08/20 01:27:37;;;;;;;2.10;1.90;;;24.40;99.90;;;;;;1049450;28;20082;-67
2022/08/20 01:28:10;;;;;;;2.22;1.92;;;24.40;99.90;;;;;;1047093;28;20104;-67
2022/08/20 01:28:51;;;;;;;2.67;2.10;;;24.40;99.90;;;;;;1044354;28;20017;-67
2022/08/20 01:29:25;;;;;;;2.30;2.10;;;24.40;99.90;;;;;;1042402;28;20040;-67
2022/08/20 01:29:56;;;;;;;2.53;2.33;;;24.30;99.90;;;;;;1043057;28;20024;-66
2022/08/20 01:30:30;;;;;;;2.47;2.28;;;24.30;99.90;;;;;;1042553;28;20021;-66
2022/08/20 01:31:02;;;;;;;3.20;2.90;;;24.30;99.90;;;;;;1042944;28;20049;-66
2022/08/20 01:31:35;;;;;;;2.78;2.55;;;24.30;99.90;;;;;;1043117;28;20049;-67
2022/08/20 01:32:06;;;;;;;2.63;2.10;;;24.40;99.90;;;;;;1042971;28;20014;-66
2022/08/20 01:32:36;;;;;;;3.37;2.77;;;24.30;99.90;;;;;;1043162;28;20021;-67
2022/08/20 01:33:07;;;;;;;2.97;2.53;;;24.30;99.90;;;;;;1043087;28;20020;-67
2022/08/20 01:33:39;;;;;;;2.93;2.53;;;24.30;99.90;;;;;;1042965;28;20033;-68
2022/08/20 01:34:12;;;;;;;2.97;2.50;;;24.30;99.90;;;;;;1047438;28;20422;-66
2022/08/20 01:34:43;;;;;;;4.05;2.97;;;24.30;99.90;;;;;;1047259;28;20045;-67
2022/08/20 01:35:19;;;;;;;1.63;1.53;;;24.30;99.90;;;;;;1047167;28;20091;-67
2022/08/20 01:35:51;;;;;;;1.83;1.70;;;24.30;99.90;;;;;;1047451;28;20024;-68
2022/08/20 01:36:30;;;;;;;3.47;2.13;;;24.30;99.90;;;;;;1047095;28;20016;-68
2022/08/20 01:37:00;;;;;;;2.58;1.95;;;24.30;99.90;;;;;;1047365;28;20496;-67
2022/08/20 01:37:31;;;;;;;2.30;1.90;;;24.30;99.90;;;;;;1047225;28;20463;-68
2022/08/20 01:38:02;;;;;;;2.17;1.97;;;24.30;99.90;;;;;;1047196;28;20040;-67
2022/08/20 01:38:34;;;;;;;2.67;1.73;;;24.30;99.90;;;;;;1047350;28;20074;-67
2022/08/20 01:39:08;;;;;;;2.17;1.90;;;24.30;99.90;;;;;;1047153;28;20016;-68
2022/08/20 01:39:41;;;;;;;2.10;1.80;;;24.30;99.90;;;;;;1047238;28;20017;-67
2022/08/20 01:40:15;;;;;;;1.83;1.70;;;24.30;99.90;;;;;;1047178;28;20028;-68
2022/08/20 01:41:20;;;;;;;2.15;1.85;;;24.30;99.90;;;;;;1047196;28;20366;-67
2022/08/20 01:42:11;;;;;;;1.80;1.55;;;24.30;99.90;;;;;;1047092;28;20012;-67
2022/08/20 01:42:46;;;;;;;2.30;1.88;;;24.30;99.90;;;;;;1047201;28;20023;-67
2022/08/20 01:43:16;;;;;;;2.67;2.13;;;24.30;99.90;;;;;;1047157;28;20019;-67
2022/08/20 01:43:49;;;;;;;2.03;1.50;;;24.40;99.90;;;;;;1047183;28;20031;-67
2022/08/20 01:44:20;;;;;;;2.45;2.05;;;24.30;99.90;;;;;;1047050;28;20479;-67
2022/08/20 01:44:51;;;;;;;2.15;1.90;;;24.40;99.90;;;;;;1047280;28;20020;-68
2022/08/20 01:45:22;;;;;;;2.72;2.05;;;24.40;99.90;;;;;;1047314;28;20061;-67
2022/08/20 01:45:53;;;;;;;2.67;2.00;;;24.40;99.90;;;;;;1047126;28;20047;-67
2022/08/20 01:46:28;;;;;;;1.73;1.60;;;24.40;99.90;;;;;;1047210;28;20509;-68
2022/08/20 01:47:27;;;;;;;1.90;1.70;;;24.40;99.90;;;;;;1046626;28;20028;-67
2022/08/20 01:47:58;;;;;;;2.03;1.83;;;24.40;99.90;;;;;;1046848;28;20020;-67
2022/08/20 01:48:29;;;;;;;2.40;2.10;;;24.40;99.90;;;;;;1046922;28;20012;-67
2022/08/20 01:49:12;;;;;;;2.40;2.00;;;24.40;99.90;;;;;;1047145;28;20027;-67
2022/08/20 01:49:50;;;;;;;2.47;2.22;;;24.40;99.90;;;;;;1047348;28;20025;-67
2022/08/20 01:50:23;;;;;;;;;;;24.40;99.90;;;;;;1042559;28;20393;-67
2022/08/20 01:51:16;;;;;;;1.98;1.80;;;24.40;99.90;;;;;;1042924;28;19983;-67
2022/08/20 01:51:48;;;;;;;2.25;2.05;;;24.40;99.90;;;;;;1042934;28;20013;-67
2022/08/20 01:52:35;;;;;;;2.05;1.85;;;24.40;99.90;;;;;;1046727;28;20078;-67
2022/08/20 01:53:16;;;;;;;2.80;1.95;;;24.40;99.90;;;;;;1047178;28;20021;-67
2022/08/20 01:53:51;;;;;;;2.42;1.98;;;24.30;99.90;;;;;;1047298;28;20009;-67
2022/08/20 01:54:24;;;;;;;1.60;1.50;;;24.30;99.90;;;;;;1046781;28;20116;-67
2022/08/20 01:54:55;;;;;;;2.20;2.00;;;24.30;99.90;;;;;;1047416;28;20032;-67
2022/08/20 01:55:26;;;;;;;1.88;1.70;;;24.30;99.90;;;;;;1046777;28;20653;-67
2022/08/20 01:55:57;;;;;;;2.63;1.70;;;24.30;99.90;;;;;;1047444;28;20032;-67
2022/08/20 01:56:30;;;;;;;2.57;2.07;;;24.30;99.90;;;;;;1046538;28;20020;-67
2022/08/20 01:57:09;;;;;;;2.83;1.83;;;24.30;99.90;;;;;;1047051;28;20088;-67
2022/08/20 01:57:40;;;;;;;2.20;2.00;;;24.30;99.90;;;;;;1047119;28;20028;-67
2022/08/20 01:58:11;;;;;;;2.20;2.00;;;24.30;99.90;;;;;;1047232;28;20063;-67
2022/08/20 01:58:48;;;;;;;1.57;1.47;;;24.30;99.90;;;;;;1047138;28;20062;-67
2022/08/20 01:59:19;;;;;;;1.73;1.63;;;24.30;99.90;;;;;;1047127;28;20016;-67
2022/08/20 01:59:50;;;;;;;2.30;2.10;;;24.30;99.90;;;;;;1047043;28;20012;-67
2022/08/20 02:00:22;;;;;;;2.00;1.80;;;24.30;99.90;;;;;;1047153;28;20099;-67
2022/08/20 02:00:52;;;;;;;1.60;1.50;;;24.30;99.90;;;;;;1047070;28;20086;-67
2022/08/20 02:01:27;;;;;;;1.73;1.63;;;24.30;99.90;;;;;;1046731;28;20071;-67
2022/08/20 02:01:58;;;;;;;1.95;1.75;;;24.30;99.90;;;;;;1046649;28;20140;-67
2022/08/20 02:02:29;;;;;;;2.58;2.35;;;24.30;99.90;;;;;;1042813;28;20043;-67
2022/08/20 02:03:01;;;;;;;2.67;1.83;;;24.30;99.90;;;;;;1043198;28;20380;-67
2022/08/20 02:03:32;;;;;;;2.58;2.20;;;24.30;99.90;;;;;;1046888;28;20503;-67
2022/08/20 02:04:05;;;;;;;2.00;1.73;;;24.30;99.90;;;;;;1046611;28;20507;-67
2022/08/20 02:04:35;;;;;;;2.30;2.00;;;24.30;99.90;;;;;;1047349;28;20017;-67
2022/08/20 02:05:06;;;;;;;2.20;2.00;;;24.30;99.90;;;;;;1046970;28;20172;-67
2022/08/20 02:05:37;;;;;;;1.67;1.58;;;24.30;99.90;;;;;;1046828;28;20032;-67
2022/08/20 02:06:09;;;;;;;2.27;1.97;;;24.30;99.90;;;;;;1046583;28;20021;-67
2022/08/20 02:06:43;;;;;;;2.28;2.08;;;24.30;99.90;;;;;;1046902;28;20104;-67
2022/08/20 02:07:17;;;;;;;2.55;2.20;;;24.30;99.90;;;;;;1046688;28;20043;-67
2022/08/20 02:07:48;;;;;;;2.15;1.95;;;24.30;99.90;;;;;;1047396;28;20021;-68
2022/08/20 02:08:20;;;;;;;2.07;1.80;;;24.30;99.90;;;;;;1046880;28;20017;-67
2022/08/20 02:08:58;;;;;;;2.50;2.08;;;24.30;99.90;;;;;;1047391;28;20054;-67
2022/08/20 02:09:35;;;;;;;2.10;1.90;;;24.30;99.90;;;;;;1047205;28;20032;-67
2022/08/20 02:10:08;;;;;;;2.05;1.73;;;24.30;99.90;;;;;;1047038;28;20267;-67
2022/08/20 02:10:39;;;;;;;2.05;1.85;;;24.20;99.90;;;;;;1047232;28;20024;-67
2022/08/20 02:11:10;;;;;;;3.38;1.98;;;24.30;99.90;;;;;;1046969;28;20514;-67
2022/08/20 02:11:41;;;;;;;2.20;2.00;;;24.30;99.90;;;;;;1047328;28;20069;-67
2022/08/20 02:12:13;;;;;;;1.93;1.60;;;24.30;99.90;;;;;;1046909;28;20025;-67
2022/08/20 02:12:43;;;;;;;1.80;1.70;;;24.30;99.90;;;;;;1047326;28;20016;-67
2022/08/20 02:13:14;;;;;;;2.10;1.90;;;24.30;99.90;;;;;;1047002;28;20123;-67
2022/08/20 02:13:48;;;;;;;1.63;1.53;;;24.30;99.90;;;;;;1047243;28;20017;-67
2022/08/20 02:14:19;;;;;;;1.50;1.25;;;24.30;99.90;;;;;;1046979;28;20476;-67
2022/08/20 02:14:52;;;;;;;1.90;1.70;;;24.30;99.90;;;;;;1046705;28;20550;-67
2022/08/20 02:15:22;;;;;;;3.08;2.50;;;24.30;99.90;;;;;;1046569;28;20123;-67
2022/08/20 02:15:53;;;;;;;2.47;1.77;;;24.30;99.90;;;;;;1046952;28;20013;-67
2022/08/20 02:16:28;;;;;;;1.83;1.30;;;24.30;99.90;;;;;;1046614;28;20580;-67
2022/08/20 02:16:59;;;;;;;2.97;2.08;;;24.30;99.90;;;;;;1047249;28;20021;-67
2022/08/20 02:17:30;;;;;;;1.73;1.63;;;24.30;99.90;;;;;;1046976;28;20024;-67
2022/08/20 02:18:07;;;;;;;1.53;1.43;;;24.30;99.90;;;;;;1047224;28;20058;-67
2022/08/20 02:18:38;;;;;;;2.75;1.77;;;24.30;99.90;;;;;;1046890;28;20460;-67
2022/08/20 02:19:14;;;;;;;2.37;2.13;;;24.30;99.90;;;;;;1047232;28;20733;-67
2022/08/20 02:20:01;;;;;;;2.80;2.00;;;24.30;99.90;;;;;;1047134;28;20255;-67
2022/08/20 02:20:32;;;;;;;;;;;24.30;99.90;;;;;;1047482;28;20094;-67
2022/08/20 02:21:03;;;;;;;3.73;2.20;;;24.30;99.90;;;;;;1047239;28;19966;-67
2022/08/20 02:21:36;;;;;;;2.30;1.50;;;24.30;99.90;;;;;;1047121;28;20020;-67
2022/08/20 02:22:34;;;;;;;1.70;1.60;;;24.30;99.90;;;;;;1047130;28;20083;-67
2022/08/20 02:23:06;;;;;;;2.17;1.95;;;24.30;99.90;;;;;;1046945;28;20480;-67
2022/08/20 02:23:37;;;;;;;2.17;1.75;;;24.30;99.90;;;;;;1047212;28;20082;-67
2022/08/20 02:24:09;;;;;;;2.43;2.23;;;24.30;99.90;;;;;;1047028;28;20157;-67
2022/08/20 02:24:39;;;;;;;2.80;1.83;;;24.30;99.90;;;;;;1046428;28;20505;-67
2022/08/20 02:25:11;;;;;;;1.60;1.50;;;24.30;99.90;;;;;;1042858;28;20034;-68
2022/08/20 02:25:46;;;;;;;2.15;1.67;;;24.30;99.90;;;;;;1042771;28;20805;-67
2022/08/20 02:26:18;;;;;;;2.58;1.90;;;24.30;99.90;;;;;;1042857;28;20581;-67
2022/08/20 02:26:49;;;;;;;1.80;1.70;;;24.30;99.90;;;;;;1043275;28;20013;-67
2022/08/20 02:27:22;;;;;;;2.00;1.80;;;24.30;99.90;;;;;;1042822;28;20017;-67
2022/08/20 02:27:53;;;;;;;2.83;2.40;;;24.30;99.90;;;;;;1043127;28;20353;-68
2022/08/20 02:28:24;;;;;;;2.35;2.15;;;24.30;99.90;;;;;;1042757;28;20017;-67
2022/08/20 02:28:56;;;;;;;3.63;1.93;;;24.30;99.90;;;;;;1042972;28;20021;-68
2022/08/20 02:29:26;;;;;;;1.70;1.60;;;24.30;99.90;;;;;;1042767;28;20079;-66
2022/08/20 02:29:57;;;;;;;1.63;1.53;;;24.30;99.90;;;;;;1043045;28;20095;-67
2022/08/20 02:30:34;;;;;;;2.20;1.70;;;24.30;99.90;;;;;;1042907;28;20521;-68
2022/08/20 02:31:07;;;;;;;1.50;1.40;;;24.30;99.90;;;;;;1042930;28;20070;-68
2022/08/20 02:31:39;;;;;;;2.08;1.88;;;24.30;99.90;;;;;;1043022;28;20150;-68
2022/08/20 02:32:10;;;;;;;2.53;2.33;;;24.30;99.90;;;;;;1042763;28;20020;-69
2022/08/20 02:32:41;;;;;;;2.33;2.13;;;24.30;99.90;;;;;;1043052;28;20107;-68
2022/08/20 02:33:14;;;;;;;2.33;2.10;;;24.30;99.90;;;;;;1042726;28;20056;-66
2022/08/20 02:33:46;;;;;;;1.50;1.40;;;24.30;99.90;;;;;;1044520;28;20024;-66
2022/08/20 02:34:16;;;;;;;1.80;1.70;;;24.30;99.90;;;;;;1047421;28;20455;-66
2022/08/20 02:34:48;;;;;;;1.77;1.67;;;24.30;99.90;;;;;;1047759;28;20574;-66
2022/08/20 02:35:19;;;;;;;1.60;1.48;;;24.30;99.90;;;;;;1047323;28;20016;-66
2022/08/20 02:35:51;;;;;;;1.83;1.63;;;24.30;99.90;;;;;;1047872;28;20107;-66
2022/08/20 02:36:21;;;;;;;2.40;2.20;;;24.30;99.90;;;;;;1047405;28;20824;-66
2022/08/20 02:36:52;;;;;;;2.00;1.80;;;24.30;99.90;;;;;;1047883;28;20096;-67
2022/08/20 02:37:23;;;;;;;2.10;1.90;;;24.30;99.90;;;;;;1047382;28;20013;-66
2022/08/20 02:37:54;;;;;;;2.73;2.30;;;24.30;99.90;;;;;;1047759;28;20056;-66
2022/08/20 02:38:25;;;;;;;3.10;2.33;;;24.30;99.90;;;;;;1047775;28;20025;-66
2022/08/20 02:38:56;;;;;;;3.63;2.83;;;24.30;99.90;;;;;;1048009;28;20044;-66
2022/08/20 02:39:26;;;;;;;1.87;1.70;;;24.30;99.90;;;;;;1047855;28;20080;-67
2022/08/20 02:39:57;;;;;;;2.97;2.67;;;24.30;99.90;;;;;;1047965;28;20803;-66
2022/08/20 02:40:29;;;;;;;2.73;2.30;;;24.30;99.90;;;;;;1047959;28;20051;-66
2022/08/20 02:41:01;;;;;;;3.90;2.78;;;24.20;99.90;;;;;;1047803;28;20020;-66
2022/08/20 02:41:31;;;;;;;2.33;2.13;;;24.20;99.90;;;;;;1047944;28;20095;-67
2022/08/20 02:42:03;;;;;;;2.20;1.70;;;24.30;99.90;;;;;;1047910;28;20033;-66
2022/08/20 02:42:34;;;;;;;2.10;1.48;;;24.20;99.90;;;;;;1047910;28;20027;-66
2022/08/20 02:43:05;;;;;;;1.83;1.70;;;24.20;99.90;;;;;;1047511;28;20017;-66
2022/08/20 02:43:36;;;;;;;1.83;1.73;;;24.20;99.90;;;;;;1047602;28;20032;-66
2022/08/20 02:44:07;;;;;;;1.73;1.60;;;24.20;99.90;;;;;;1047459;28;20334;-67
2022/08/20 02:44:39;;;;;;;2.20;1.85;;;24.20;99.90;;;;;;1047587;28;20036;-66
2022/08/20 02:45:13;;;;;;;1.80;1.52;;;24.20;99.90;;;;;;1048037;28;20100;-66
2022/08/20 02:45:44;;;;;;;2.88;2.03;;;24.20;99.90;;;;;;1047885;28;20104;-66
2022/08/20 02:46:17;;;;;;;2.10;1.95;;;24.20;99.90;;;;;;1047909;28;20024;-67
2022/08/20 02:46:48;;;;;;;3.00;2.15;;;24.20;99.90;;;;;;1048132;28;20039;-66
2022/08/20 02:47:19;;;;;;;3.25;2.83;;;24.20;99.90;;;;;;1047807;28;20020;-67
2022/08/20 02:47:52;;;;;;;2.93;2.13;;;24.20;99.90;;;;;;1047954;28;20048;-67
2022/08/20 02:48:24;;;;;;;2.00;1.80;;;24.20;99.90;;;;;;1047770;28;20044;-67
2022/08/20 02:48:55;;;;;;;2.10;1.85;;;24.20;99.90;;;;;;1047958;28;20027;-67
2022/08/20 02:49:25;;;;;;;2.40;2.17;;;24.20;99.90;;;;;;1047370;28;20025;-67
2022/08/20 02:49:58;;;;;;;2.87;2.40;;;24.20;99.90;;;;;;1047579;28;20021;-66
2022/08/20 02:50:29;;;;;;;2.50;2.22;;;24.20;99.90;;;;;;1047564;28;20031;-66
2022/08/20 02:51:04;;;;;;;2.20;2.00;;;24.20;99.90;;;;;;1047571;28;20111;-66
2022/08/20 02:51:35;;;;;;;2.53;1.92;;;24.20;99.90;;;;;;1047939;28;20052;-66
2022/08/20 02:52:06;;;;;;;2.47;2.22;;;24.20;99.90;;;;;;1047877;28;20025;-66
2022/08/20 02:52:37;;;;;;;2.20;1.83;;;24.20;99.90;;;;;;1047753;28;20017;-67
2022/08/20 02:53:07;;;;;;;2.47;1.97;;;24.20;99.90;;;;;;1047857;28;20500;-68
2022/08/20 02:53:40;;;;;;;2.10;1.83;;;24.20;99.90;;;;;;1047834;28;20020;-66
2022/08/20 02:54:12;;;;;;;1.95;1.60;;;24.20;99.90;;;;;;1047903;28;20131;-67
2022/08/20 02:54:43;;;;;;;1.55;1.45;;;24.20;99.90;;;;;;1047889;28;20039;-66
2022/08/20 02:55:15;;;;;;;1.70;1.60;;;24.20;99.90;;;;;;1047384;28;20017;-66